Time;durP1;ratioP1;P1;durP2;ratioP2;P2;SDS_P1;SDS_P2;PMS_P1;PMS_P2;Temp;Humidity;BMP_temperature;BMP_pressure;BME280_temperature;BME280_humidity;BME280_pressure;Samples;Min_cycle;Max_cycle;Signal;HPM_P1;HPM_P2
2020/12/21 00:01:51;;;;;;;4.57;4.17;;;8.60;99.90;;;;;;4953998;29;20945;-68
2020/12/21 00:04:18;;;;;;;4.87;4.30;;;8.60;99.90;;;;;;4954091;29;20275;-69
2020/12/21 00:06:43;;;;;;;3.33;3.10;;;8.60;99.90;;;;;;4954198;29;20429;-69
2020/12/21 00:09:09;;;;;;;4.00;3.70;;;8.60;99.90;;;;;;4953689;29;20480;-68
2020/12/21 00:11:37;;;;;;;3.80;3.23;;;8.60;99.90;;;;;;4953940;29;20269;-68
2020/12/21 00:14:04;;;;;;;5.47;4.10;;;8.60;99.90;;;;;;4954182;29;20640;-68
2020/12/21 00:16:39;;;;;;;3.70;3.40;;;8.70;99.90;;;;;;4954338;29;20436;-68
2020/12/21 00:19:06;;;;;;;2.67;2.47;;;8.60;99.90;;;;;;4953790;29;20440;-68
2020/12/21 00:21:32;;;;;;;3.73;3.07;;;8.60;99.90;;;;;;4954165;29;20463;-68
2020/12/21 00:23:58;;;;;;;3.00;2.80;;;8.60;99.90;;;;;;4953856;29;20464;-68
2020/12/21 00:26:23;;;;;;;5.50;3.67;;;8.60;99.90;;;;;;4954022;29;20476;-68
2020/12/21 00:28:49;;;;;;;3.33;3.00;;;8.60;99.90;;;;;;4953295;29;20440;-69
2020/12/21 00:31:25;;;;;;;3.07;2.87;;;8.70;99.90;;;;;;4953607;29;20177;-67
2020/12/21 00:33:51;;;;;;;2.70;2.50;;;8.70;99.90;;;;;;4953563;28;20176;-68
2020/12/21 00:36:17;;;;;;;3.40;3.20;;;8.60;99.90;;;;;;4953617;28;21193;-67
2020/12/21 00:38:43;;;;;;;2.83;2.63;;;8.60;99.90;;;;;;4953500;28;20556;-67
2020/12/21 00:41:12;;;;;;;3.40;2.40;;;8.60;99.90;;;;;;4953959;29;20515;-68
2020/12/21 00:43:38;;;;;;;3.47;3.17;;;8.50;99.90;;;;;;4953641;28;20220;-68
2020/12/21 00:46:03;;;;;;;3.03;2.83;;;8.50;99.90;;;;;;4953792;29;20433;-67
2020/12/21 00:48:30;;;;;;;3.80;3.50;;;8.30;99.90;;;;;;4953412;29;20201;-68
2020/12/21 00:50:57;;;;;;;6.60;6.00;;;8.30;99.90;;;;;;4953725;29;20180;-68
2020/12/21 00:53:23;;;;;;;5.73;4.90;;;8.20;99.90;;;;;;4953984;29;20439;-68
2020/12/21 00:55:48;;;;;;;3.13;2.87;;;8.10;99.90;;;;;;4953363;29;20842;-68
2020/12/21 00:58:14;;;;;;;3.40;3.10;;;8.10;99.90;;;;;;4953138;29;20444;-67
2020/12/21 01:00:39;;;;;;;3.37;3.07;;;8.10;99.90;;;;;;4953870;29;20188;-67
2020/12/21 01:03:05;;;;;;;2.87;2.60;;;8.10;99.90;;;;;;4953455;29;20571;-68
2020/12/21 01:05:30;;;;;;;3.67;3.20;;;8.10;99.90;;;;;;4953471;29;20235;-68
2020/12/21 01:07:56;;;;;;;4.20;3.57;;;8.10;99.90;;;;;;4953043;29;20324;-68
2020/12/21 01:10:21;;;;;;;4.70;3.57;;;8.10;99.90;;;;;;4953276;29;20184;-67
2020/12/21 01:12:47;;;;;;;3.80;3.40;;;8.20;99.90;;;;;;4953231;29;20184;-68
2020/12/21 01:15:12;;;;;;;4.10;2.70;;;8.20;99.90;;;;;;4953144;29;20543;-67
2020/12/21 01:17:38;;;;;;;3.33;2.83;;;8.20;99.90;;;;;;4952581;29;20211;-68
2020/12/21 01:20:05;;;;;;;4.80;4.13;;;8.20;99.90;;;;;;4952825;29;20185;-68
2020/12/21 01:22:31;;;;;;;2.83;2.57;;;8.30;99.90;;;;;;4953092;29;20261;-68
2020/12/21 01:24:56;;;;;;;3.70;3.00;;;8.30;99.90;;;;;;4952836;29;20716;-68
2020/12/21 01:27:22;;;;;;;3.33;3.00;;;8.30;99.90;;;;;;4952865;29;20437;-67
2020/12/21 01:29:47;;;;;;;3.40;3.10;;;8.30;99.90;;;;;;4952613;29;20227;-67
2020/12/21 01:32:13;;;;;;;3.47;3.17;;;8.20;99.90;;;;;;4952750;29;20594;-68
2020/12/21 01:34:39;;;;;;;2.93;2.73;;;8.30;99.90;;;;;;4952952;29;20177;-68
2020/12/21 01:37:04;;;;;;;3.10;2.90;;;8.20;99.90;;;;;;4952857;29;20301;-69
2020/12/21 01:39:31;;;;;;;3.50;3.20;;;8.20;99.90;;;;;;4952489;29;20413;-68
2020/12/21 01:41:56;;;;;;;2.83;2.63;;;8.10;99.90;;;;;;4953086;29;20185;-68
2020/12/21 01:44:22;;;;;;;4.73;3.40;;;7.90;99.90;;;;;;4953009;28;20461;-67
2020/12/21 01:46:48;;;;;;;4.00;3.60;;;7.90;99.90;;;;;;4956058;28;20427;-68
2020/12/21 01:49:14;;;;;;;3.83;3.53;;;7.80;99.90;;;;;;4956659;29;20173;-68
2020/12/21 01:51:40;;;;;;;3.90;3.50;;;7.70;99.90;;;;;;4956885;29;20184;-68
2020/12/21 01:54:07;;;;;;;2.87;2.67;;;7.60;99.90;;;;;;4956986;29;20455;-68
2020/12/21 01:56:35;;;;;;;3.50;3.20;;;7.50;99.90;;;;;;4957035;29;20435;-66
2020/12/21 01:59:01;;;;;;;3.30;2.93;;;7.40;99.90;;;;;;4956578;28;20448;-67
2020/12/21 02:01:29;;;;;;;4.77;3.53;;;7.40;99.90;;;;;;4956823;28;20435;-67
2020/12/21 02:03:54;;;;;;;3.13;2.83;;;7.30;99.90;;;;;;4956521;28;21165;-68
2020/12/21 02:06:20;;;;;;;4.57;3.50;;;7.30;99.90;;;;;;4956667;29;20428;-68
2020/12/21 02:08:46;;;;;;;3.17;2.83;;;7.30;99.90;;;;;;4956079;29;20193;-68
2020/12/21 02:11:11;;;;;;;3.10;2.80;;;7.30;99.90;;;;;;4956734;29;20259;-68
2020/12/21 02:13:37;;;;;;;2.73;2.53;;;7.30;99.90;;;;;;4956538;29;20456;-66
2020/12/21 02:16:03;;;;;;;4.80;3.17;;;7.30;99.90;;;;;;4956718;28;20177;-68
2020/12/21 02:18:28;;;;;;;3.50;3.03;;;7.30;99.90;;;;;;4956280;29;20201;-69
2020/12/21 02:20:54;;;;;;;5.50;3.10;;;7.40;99.90;;;;;;4957475;29;20420;-68
2020/12/21 02:23:20;;;;;;;3.30;3.00;;;7.40;99.90;;;;;;4956462;29;20212;-68
2020/12/21 02:25:45;;;;;;;3.00;2.80;;;7.40;99.90;;;;;;4956651;29;20199;-68
2020/12/21 02:28:11;;;;;;;2.80;2.33;;;7.40;99.90;;;;;;4956449;29;20197;-69
2020/12/21 02:30:36;;;;;;;3.07;2.77;;;7.40;99.90;;;;;;4957029;29;20173;-68
2020/12/21 02:33:05;;;;;;;2.70;2.50;;;7.50;99.90;;;;;;4956785;29;20169;-68
2020/12/21 02:35:35;;;;;;;6.40;3.13;;;7.50;99.90;;;;;;4956022;29;20181;-68
2020/12/21 02:38:06;;;;;;;3.67;3.23;;;7.40;99.90;;;;;;4955684;29;20464;-68
2020/12/21 02:40:41;;;;;;;4.20;2.70;;;7.40;99.90;;;;;;4956110;29;20428;-68
2020/12/21 02:43:07;;;;;;;4.83;4.37;;;7.40;99.90;;;;;;4956010;29;20424;-68
2020/12/21 02:45:32;;;;;;;3.40;3.10;;;7.40;99.90;;;;;;4956177;29;20868;-68
2020/12/21 02:47:58;;;;;;;3.03;2.73;;;7.40;99.90;;;;;;4955786;29;20204;-67
2020/12/21 02:50:23;;;;;;;3.50;3.20;;;7.30;99.90;;;;;;4956055;29;20204;-67
2020/12/21 02:52:49;;;;;;;3.50;2.90;;;7.30;99.90;;;;;;4955919;28;20189;-68
2020/12/21 02:55:14;;;;;;;5.90;3.80;;;7.20;99.90;;;;;;4955684;29;20184;-68
2020/12/21 02:57:40;;;;;;;4.60;3.67;;;7.10;99.90;;;;;;4955535;28;20267;-67
2020/12/21 03:00:10;;;;;;;4.87;3.73;;;7.00;99.90;;;;;;4956080;29;20177;-68
2020/12/21 03:02:35;;;;;;;5.00;4.50;;;7.00;99.90;;;;;;4955805;29;20173;-68
2020/12/21 03:05:01;;;;;;;4.30;3.73;;;7.00;99.90;;;;;;4955820;29;20555;-67
2020/12/21 03:07:27;;;;;;;4.30;3.90;;;6.90;99.90;;;;;;4955914;28;20196;-68
2020/12/21 03:09:52;;;;;;;5.60;5.10;;;6.90;99.90;;;;;;4955539;29;20177;-67
2020/12/21 03:12:17;;;;;;;6.53;4.83;;;6.90;99.90;;;;;;4955745;29;20237;-67
2020/12/21 03:14:43;;;;;;;12.53;11.23;;;6.80;99.90;;;;;;4955784;29;20188;-68
2020/12/21 03:17:09;;;;;;;6.70;6.00;;;6.80;99.90;;;;;;4955427;28;20204;-68
2020/12/21 03:19:34;;;;;;;5.77;5.27;;;6.80;99.90;;;;;;4954659;29;20172;-68
2020/12/21 03:21:59;;;;;;;6.00;5.43;;;6.70;99.90;;;;;;4954933;29;20177;-67
2020/12/21 03:24:25;;;;;;;6.10;5.50;;;6.70;99.90;;;;;;4954571;28;20593;-67
2020/12/21 03:26:50;;;;;;;6.53;4.40;;;6.70;99.90;;;;;;4954794;29;20169;-67
2020/12/21 03:29:17;;;;;;;5.53;5.00;;;6.70;99.90;;;;;;4954513;29;20181;-67
2020/12/21 03:31:43;;;;;;;5.17;4.43;;;6.60;99.90;;;;;;4954926;29;20655;-66
2020/12/21 03:34:09;;;;;;;4.77;4.37;;;6.60;99.90;;;;;;4954959;29;20437;-67
2020/12/21 03:36:38;;;;;;;4.90;3.83;;;6.50;99.90;;;;;;4954710;29;20448;-67
2020/12/21 03:39:04;;;;;;;4.23;3.30;;;6.50;99.90;;;;;;4954424;29;20448;-68
2020/12/21 03:41:30;;;;;;;5.47;4.50;;;6.40;99.90;;;;;;4954813;29;20182;-68
2020/12/21 03:43:55;;;;;;;4.20;3.13;;;6.40;99.90;;;;;;4954418;29;20204;-68
2020/12/21 03:46:20;;;;;;;5.80;3.30;;;6.40;99.90;;;;;;4954350;29;20185;-68
2020/12/21 03:48:46;;;;;;;7.00;3.77;;;6.30;99.90;;;;;;4954022;29;20259;-69
2020/12/21 03:51:11;;;;;;;4.10;3.30;;;6.30;99.90;;;;;;4954243;29;20169;-67
2020/12/21 03:53:37;;;;;;;3.83;2.90;;;6.30;99.90;;;;;;4954240;29;20635;-66
2020/12/21 03:56:03;;;;;;;4.07;3.67;;;6.30;99.90;;;;;;4954235;29;20204;-68
2020/12/21 03:58:28;;;;;;;4.00;3.67;;;6.20;99.90;;;;;;4953919;29;20284;-68
2020/12/21 04:00:54;;;;;;;4.20;3.70;;;6.20;99.90;;;;;;4954053;29;20665;-68
2020/12/21 04:03:19;;;;;;;3.97;3.57;;;6.10;99.90;;;;;;4953837;29;20205;-66
2020/12/21 04:05:45;;;;;;;4.70;3.07;;;6.10;99.90;;;;;;4954015;29;20200;-68
2020/12/21 04:08:10;;;;;;;6.53;3.40;;;6.00;99.90;;;;;;4953002;28;20236;-68
2020/12/21 04:10:37;;;;;;;4.60;4.20;;;6.00;99.90;;;;;;4953756;29;20264;-68
2020/12/21 04:13:03;;;;;;;5.70;5.07;;;6.00;99.90;;;;;;4953809;29;20240;-68
2020/12/21 04:15:28;;;;;;;5.57;5.07;;;6.00;99.90;;;;;;4953680;29;20508;-68
2020/12/21 04:17:54;;;;;;;5.80;4.63;;;6.00;99.90;;;;;;4953192;29;20212;-67
2020/12/21 04:20:20;;;;;;;6.73;6.00;;;6.00;99.90;;;;;;4953532;29;20177;-67
2020/12/21 04:22:45;;;;;;;8.43;5.70;;;6.00;99.90;;;;;;4953609;29;20243;-68
2020/12/21 04:25:11;;;;;;;6.87;5.67;;;6.00;99.90;;;;;;4953237;29;20288;-68
2020/12/21 04:27:36;;;;;;;6.67;6.07;;;6.00;99.90;;;;;;4953261;29;20558;-68
2020/12/21 04:30:03;;;;;;;5.53;4.73;;;6.10;99.90;;;;;;4953271;29;20184;-68
2020/12/21 04:32:28;;;;;;;6.90;6.07;;;6.20;99.90;;;;;;4953317;29;20165;-66
2020/12/21 04:34:54;;;;;;;6.47;5.57;;;6.20;99.90;;;;;;4953424;29;20483;-67
2020/12/21 04:37:20;;;;;;;6.90;5.50;;;6.20;99.90;;;;;;4953152;29;20212;-68
2020/12/21 04:39:45;;;;;;;5.47;4.97;;;6.20;99.90;;;;;;4952803;29;20173;-68
2020/12/21 04:42:11;;;;;;;5.13;4.50;;;6.20;99.90;;;;;;4953166;29;20177;-67
2020/12/21 04:44:37;;;;;;;5.23;4.73;;;6.10;99.90;;;;;;4953161;28;20699;-67
2020/12/21 04:47:02;;;;;;;9.13;5.17;;;6.00;99.90;;;;;;4953053;29;20267;-68
2020/12/21 04:49:28;;;;;;;9.10;5.20;;;6.00;99.90;;;;;;4952783;29;20499;-68
2020/12/21 04:51:53;;;;;;;7.53;6.23;;;5.90;99.90;;;;;;4953047;29;20169;-68
2020/12/21 04:54:20;;;;;;;7.93;6.27;;;5.90;99.90;;;;;;4952958;29;20177;-68
2020/12/21 04:56:46;;;;;;;6.23;5.10;;;5.90;99.90;;;;;;4953035;29;20264;-68
2020/12/21 04:59:13;;;;;;;8.63;7.27;;;6.00;99.90;;;;;;4952611;29;20870;-67
2020/12/21 05:01:39;;;;;;;6.40;5.13;;;5.90;99.90;;;;;;4952953;29;20176;-68
2020/12/21 05:04:05;;;;;;;4.47;4.07;;;6.00;99.90;;;;;;4952792;29;20461;-68
2020/12/21 05:06:30;;;;;;;6.33;4.60;;;6.00;99.90;;;;;;4953065;29;20417;-68
2020/12/21 05:09:07;;;;;;;8.30;4.83;;;6.00;99.90;;;;;;4952739;29;21180;-68
2020/12/21 05:11:34;;;;;;;6.97;5.60;;;6.00;99.90;;;;;;4953031;29;20200;-67
2020/12/21 05:14:10;;;;;;;5.73;4.40;;;6.10;99.90;;;;;;4952769;29;20429;-68
2020/12/21 05:16:36;;;;;;;5.60;5.10;;;6.10;99.90;;;;;;4952891;29;20419;-68
2020/12/21 05:19:03;;;;;;;6.47;5.20;;;6.10;99.90;;;;;;4952352;29;20479;-67
2020/12/21 05:21:30;;;;;;;5.43;4.63;;;6.10;99.90;;;;;;4951889;28;20429;-67
2020/12/21 05:24:00;;;;;;;6.43;5.77;;;6.00;99.90;;;;;;4952584;29;20954;-68
2020/12/21 05:26:33;;;;;;;7.40;5.70;;;6.00;99.90;;;;;;4952990;29;20425;-67
2020/12/21 05:28:59;;;;;;;7.20;6.50;;;6.00;99.90;;;;;;4952125;29;20436;-67
2020/12/21 05:31:26;;;;;;;5.97;5.23;;;6.00;99.90;;;;;;4952565;29;20427;-67
2020/12/21 05:33:52;;;;;;;7.80;7.10;;;6.00;99.90;;;;;;4952591;29;20424;-67
2020/12/21 05:36:22;;;;;;;5.20;4.70;;;6.10;99.90;;;;;;4952605;29;20424;-66
2020/12/21 05:39:01;;;;;;;6.30;5.77;;;6.00;99.90;;;;;;4952046;29;20988;-66
2020/12/21 05:41:27;;;;;;;7.93;7.13;;;6.00;99.90;;;;;;4952548;29;20424;-67
2020/12/21 05:43:53;;;;;;;8.07;7.20;;;6.10;99.90;;;;;;4952537;28;20467;-67
2020/12/21 05:46:24;;;;;;;8.30;6.70;;;6.10;99.90;;;;;;4952393;29;20416;-67
2020/12/21 05:48:54;;;;;;;8.90;6.90;;;6.10;99.90;;;;;;4952097;28;20464;-67
2020/12/21 05:51:21;;;;;;;8.50;7.23;;;6.10;99.90;;;;;;4952436;28;20431;-67
2020/12/21 05:53:47;;;;;;;9.20;8.37;;;6.10;99.90;;;;;;4952382;29;20452;-67
2020/12/21 05:56:13;;;;;;;10.40;8.13;;;6.10;99.90;;;;;;4952438;29;20523;-67
2020/12/21 05:58:40;;;;;;;11.70;9.00;;;6.10;99.90;;;;;;4951943;29;20197;-67
2020/12/21 06:01:11;;;;;;;15.43;11.93;;;6.10;99.90;;;;;;4952488;29;20188;-67
2020/12/21 06:03:42;;;;;;;10.50;9.40;;;6.10;99.90;;;;;;4952327;28;20460;-67
2020/12/21 06:06:16;;;;;;;9.07;8.20;;;6.10;99.90;;;;;;4952420;29;20933;-66
2020/12/21 06:08:42;;;;;;;9.53;8.27;;;6.10;99.90;;;;;;4951976;29;20490;-66
2020/12/21 06:11:18;;;;;;;10.40;9.40;;;6.10;99.90;;;;;;4952371;29;20748;-68
2020/12/21 06:13:55;;;;;;;9.00;8.03;;;6.00;99.90;;;;;;4952237;28;20874;-68
2020/12/21 06:16:21;;;;;;;9.60;8.00;;;6.00;99.90;;;;;;4952237;28;20416;-67
2020/12/21 06:19:00;;;;;;;9.40;8.40;;;5.90;99.90;;;;;;4951782;29;20511;-67
2020/12/21 06:21:27;;;;;;;9.73;8.73;;;5.90;99.90;;;;;;4952225;29;20424;-66
2020/12/21 06:23:53;;;;;;;9.60;8.30;;;5.90;99.90;;;;;;4952113;29;20467;-67
2020/12/21 06:26:18;;;;;;;9.90;8.73;;;6.00;99.90;;;;;;4952180;29;20420;-67
2020/12/21 06:28:44;;;;;;;10.30;8.63;;;6.00;99.90;;;;;;4951643;29;20599;-67
2020/12/21 06:31:12;;;;;;;9.67;8.70;;;5.90;99.90;;;;;;4952344;28;20166;-66
2020/12/21 06:33:39;;;;;;;10.43;7.60;;;5.90;99.90;;;;;;4955474;29;20183;-68
2020/12/21 06:36:04;;;;;;;8.83;7.40;;;5.90;99.90;;;;;;4955550;29;20475;-67
2020/12/21 06:38:41;;;;;;;11.40;7.70;;;5.90;99.90;;;;;;4954902;29;20472;-67
2020/12/21 06:41:15;;;;;;;13.87;8.73;;;5.90;99.90;;;;;;4955337;29;20181;-66
2020/12/21 06:43:40;;;;;;;9.77;8.87;;;5.90;99.90;;;;;;4955217;29;20510;-66
2020/12/21 06:46:15;;;;;;;8.17;7.47;;;5.90;99.90;;;;;;4955185;29;20441;-67
2020/12/21 06:48:41;;;;;;;7.97;7.07;;;5.90;99.90;;;;;;4954752;29;20193;-66
2020/12/21 06:51:13;;;;;;;9.20;8.10;;;5.90;99.90;;;;;;4953744;29;20508;-67
2020/12/21 06:53:39;;;;;;;8.87;8.00;;;5.80;99.90;;;;;;4955089;29;20692;-67
2020/12/21 06:56:15;;;;;;;9.73;8.73;;;5.80;99.90;;;;;;4954946;29;20420;-67
2020/12/21 06:58:40;;;;;;;9.60;8.70;;;5.80;99.90;;;;;;4954545;29;20193;-68
2020/12/21 07:01:05;;;;;;;10.13;8.97;;;5.70;99.90;;;;;;4955020;28;20427;-67
2020/12/21 07:03:31;;;;;;;8.50;7.60;;;5.70;99.90;;;;;;4954853;29;20201;-66
2020/12/21 07:05:58;;;;;;;9.80;8.90;;;5.60;99.90;;;;;;4954833;29;20169;-66
2020/12/21 07:08:23;;;;;;;9.57;8.67;;;5.50;99.90;;;;;;4954458;29;20697;-66
2020/12/21 07:10:56;;;;;;;9.20;8.30;;;5.50;99.90;;;;;;4954704;29;20416;-69
2020/12/21 07:13:23;;;;;;;10.23;8.50;;;5.50;99.90;;;;;;4954802;29;20197;-70
2020/12/21 07:15:48;;;;;;;9.80;8.80;;;5.50;99.90;;;;;;4954795;29;20420;-69
2020/12/21 07:18:14;;;;;;;9.40;8.43;;;5.50;99.90;;;;;;4954298;29;20568;-69
2020/12/21 07:20:40;;;;;;;10.77;9.37;;;5.40;99.90;;;;;;4954714;29;20169;-70
2020/12/21 07:23:06;;;;;;;9.83;8.93;;;5.40;99.90;;;;;;4954580;29;20185;-69
2020/12/21 07:25:32;;;;;;;12.20;9.70;;;5.40;99.90;;;;;;4953931;29;20417;-70
2020/12/21 07:27:57;;;;;;;9.67;8.67;;;5.40;99.90;;;;;;4954184;28;20523;-68
2020/12/21 07:30:26;;;;;;;9.93;8.63;;;5.40;99.90;;;;;;4954473;29;20691;-69
2020/12/21 07:32:52;;;;;;;10.20;9.20;;;5.50;99.90;;;;;;4954613;29;20502;-67
2020/12/21 07:35:18;;;;;;;10.70;9.50;;;5.50;99.90;;;;;;4954477;29;20442;-67
2020/12/21 07:37:43;;;;;;;10.00;9.00;;;5.50;99.90;;;;;;4953926;28;20726;-67
2020/12/21 07:40:20;;;;;;;8.97;8.10;;;5.50;99.90;;;;;;4954297;29;20177;-67
2020/12/21 07:42:52;;;;;;;9.83;8.70;;;5.50;99.90;;;;;;4953730;28;20173;-66
2020/12/21 07:45:18;;;;;;;10.40;9.30;;;5.60;99.90;;;;;;4954157;28;20463;-66
2020/12/21 07:47:44;;;;;;;14.33;8.40;;;5.60;99.90;;;;;;4953763;29;20673;-66
2020/12/21 07:50:09;;;;;;;14.80;10.13;;;5.60;99.90;;;;;;4954366;29;20177;-66
2020/12/21 07:52:35;;;;;;;17.40;10.40;;;5.60;99.90;;;;;;4954102;29;20201;-66
2020/12/21 07:55:03;;;;;;;11.33;9.60;;;5.60;99.90;;;;;;4953930;29;20698;-66
2020/12/21 07:57:31;;;;;;;12.37;9.30;;;5.60;99.90;;;;;;4953895;29;20283;-66
2020/12/21 08:00:00;;;;;;;10.13;9.10;;;5.60;99.90;;;;;;4944295;29;20452;-68
2020/12/21 08:02:27;;;;;;;14.07;11.47;;;5.60;99.90;;;;;;4950451;28;20523;-67
2020/12/21 08:04:53;;;;;;;11.30;10.03;;;5.70;99.90;;;;;;4950850;28;20464;-66
2020/12/21 08:07:25;;;;;;;12.73;11.43;;;5.70;99.90;;;;;;4949983;28;20454;-67
2020/12/21 08:09:51;;;;;;;11.40;10.07;;;5.70;99.90;;;;;;4950133;29;20184;-69
2020/12/21 08:12:17;;;;;;;15.60;10.50;;;5.70;99.90;;;;;;4948998;29;20424;-66
2020/12/21 08:14:44;;;;;;;12.30;9.70;;;5.70;99.90;;;;;;4950479;28;20715;-66
2020/12/21 08:17:14;;;;;;;10.93;9.50;;;5.80;99.90;;;;;;4950552;28;20448;-69
2020/12/21 08:19:56;;;;;;;10.37;9.20;;;5.80;99.90;;;;;;4949882;28;20421;-68
2020/12/21 08:22:26;;;;;;;11.13;9.70;;;5.80;99.90;;;;;;4950269;28;20424;-66
2020/12/21 08:25:02;;;;;;;9.77;8.77;;;5.90;99.90;;;;;;4949097;29;20464;-66
2020/12/21 08:27:27;;;;;;;13.33;9.13;;;6.00;99.90;;;;;;4950134;29;20448;-66
2020/12/21 08:30:07;;;;;;;10.80;9.70;;;6.00;99.90;;;;;;4949496;28;20425;-67
2020/12/21 08:32:33;;;;;;;11.60;10.07;;;6.20;99.90;;;;;;4948715;29;20231;-66
2020/12/21 08:34:59;;;;;;;9.90;8.70;;;6.10;99.90;;;;;;4949839;29;20428;-66
2020/12/21 08:37:25;;;;;;;10.10;8.77;;;6.10;99.90;;;;;;4950123;28;20239;-67
2020/12/21 08:39:51;;;;;;;12.47;9.80;;;6.20;99.90;;;;;;4949454;29;20431;-66
2020/12/21 08:42:17;;;;;;;9.97;8.97;;;6.30;99.90;;;;;;4949970;29;20429;-66
2020/12/21 08:44:42;;;;;;;9.90;8.10;;;6.40;99.90;;;;;;4949557;29;20255;-66
2020/12/21 08:47:08;;;;;;;10.70;9.07;;;6.50;99.90;;;;;;4949971;29;20220;-66
2020/12/21 08:49:34;;;;;;;11.23;10.13;;;6.60;99.90;;;;;;4949522;29;20177;-66
2020/12/21 08:52:01;;;;;;;10.20;8.70;;;6.70;99.90;;;;;;4949701;29;20180;-66
2020/12/21 08:54:26;;;;;;;10.43;8.43;;;6.70;99.90;;;;;;4949730;28;20219;-66
2020/12/21 08:56:52;;;;;;;12.97;9.70;;;6.70;99.90;;;;;;4949877;28;21028;-67
2020/12/21 08:59:18;;;;;;;11.47;8.83;;;6.70;99.90;;;;;;4949996;28;20176;-66
2020/12/21 09:01:44;;;;;;;9.37;8.40;;;6.80;99.90;;;;;;4949633;28;20609;-66
2020/12/21 09:04:10;;;;;;;10.80;8.03;;;6.80;99.90;;;;;;4949655;29;20208;-66
2020/12/21 09:06:36;;;;;;;8.17;7.37;;;6.80;99.90;;;;;;4949109;28;20499;-66
2020/12/21 09:09:03;;;;;;;12.97;8.77;;;6.90;99.90;;;;;;4948871;29;20453;-67
2020/12/21 09:11:29;;;;;;;8.33;7.50;;;6.90;99.90;;;;;;4949483;29;20515;-66
2020/12/21 09:13:55;;;;;;;12.70;9.53;;;6.90;99.90;;;;;;4949399;29;20511;-67
2020/12/21 09:16:22;;;;;;;15.00;9.40;;;6.90;99.90;;;;;;4949626;29;20713;-66
2020/12/21 09:18:48;;;;;;;11.00;7.93;;;7.00;99.90;;;;;;4949104;28;20189;-67
2020/12/21 09:21:29;;;;;;;16.60;11.47;;;7.00;99.90;;;;;;4949593;28;20456;-66
2020/12/21 09:24:00;;;;;;;7.10;6.20;;;7.10;99.90;;;;;;4948974;29;20659;-67
2020/12/21 09:26:27;;;;;;;9.00;7.90;;;7.10;99.90;;;;;;4949335;29;20416;-66
2020/12/21 09:28:53;;;;;;;10.00;7.97;;;7.20;99.90;;;;;;4948606;28;20440;-66
2020/12/21 09:31:20;;;;;;;14.80;8.70;;;7.20;99.90;;;;;;4949366;28;20433;-66
2020/12/21 09:33:47;;;;;;;8.77;7.93;;;7.20;99.90;;;;;;4949067;28;20487;-66
2020/12/21 09:36:14;;;;;;;9.67;7.20;;;7.20;99.90;;;;;;4949129;28;20953;-66
2020/12/21 09:38:39;;;;;;;6.40;5.70;;;7.20;99.90;;;;;;4948638;29;20492;-66
2020/12/21 09:41:05;;;;;;;12.20;5.80;;;7.20;99.90;;;;;;4949284;29;20968;-67
2020/12/21 09:43:32;;;;;;;9.47;5.97;;;7.20;99.90;;;;;;4949195;29;20212;-67
2020/12/21 09:45:57;;;;;;;8.87;6.40;;;7.30;99.90;;;;;;4949118;29;20177;-66
2020/12/21 09:48:23;;;;;;;9.00;6.20;;;7.30;99.90;;;;;;4949309;28;20432;-66
2020/12/21 09:50:49;;;;;;;6.30;5.70;;;7.40;99.90;;;;;;4949096;28;20635;-66
2020/12/21 09:53:15;;;;;;;6.00;5.40;;;7.50;99.90;;;;;;4949251;29;20177;-67
2020/12/21 09:55:42;;;;;;;7.93;5.93;;;7.50;99.90;;;;;;4948801;29;20624;-67
2020/12/21 09:58:08;;;;;;;5.97;5.37;;;7.60;99.90;;;;;;4948677;29;20436;-66
2020/12/21 10:00:33;;;;;;;6.70;5.70;;;7.70;99.90;;;;;;4948949;29;20498;-66
2020/12/21 10:02:59;;;;;;;7.80;5.33;;;7.80;99.90;;;;;;4949031;29;20467;-66
2020/12/21 10:05:24;;;;;;;5.60;5.10;;;7.80;99.90;;;;;;4949148;28;20812;-66
2020/12/21 10:07:50;;;;;;;8.37;4.73;;;7.80;99.90;;;;;;4951479;29;20197;-66
2020/12/21 10:10:15;;;;;;;5.53;5.10;;;7.80;99.90;;;;;;4952998;29;20231;-66
2020/12/21 10:12:41;;;;;;;5.77;5.17;;;7.80;99.90;;;;;;4952322;29;20185;-67
2020/12/21 10:15:07;;;;;;;8.00;5.20;;;7.80;99.90;;;;;;4952807;29;20180;-66
2020/12/21 10:17:32;;;;;;;5.03;4.53;;;7.80;99.90;;;;;;4952407;29;20197;-66
2020/12/21 10:19:58;;;;;;;7.40;6.00;;;7.90;99.90;;;;;;4952384;29;20433;-66
2020/12/21 10:22:24;;;;;;;15.47;7.50;;;7.90;99.90;;;;;;4952317;29;20208;-66
2020/12/21 10:24:49;;;;;;;8.40;6.67;;;7.90;99.90;;;;;;4952621;29;20207;-67
2020/12/21 10:27:15;;;;;;;5.03;4.53;;;7.90;99.90;;;;;;4952412;29;20212;-66
2020/12/21 10:29:40;;;;;;;5.63;4.50;;;7.90;99.90;;;;;;4952150;29;20565;-66
2020/12/21 10:32:06;;;;;;;10.17;5.53;;;7.90;99.90;;;;;;4952290;29;20523;-66
2020/12/21 10:34:31;;;;;;;5.60;4.63;;;7.90;99.90;;;;;;4952064;29;20177;-66
2020/12/21 10:36:57;;;;;;;5.30;3.70;;;8.00;99.90;;;;;;4951947;29;20578;-66
2020/12/21 10:39:23;;;;;;;6.93;4.07;;;8.00;99.90;;;;;;4950801;28;20661;-67
2020/12/21 10:41:48;;;;;;;6.17;3.90;;;8.10;99.90;;;;;;4951365;28;20191;-66
2020/12/21 10:44:15;;;;;;;5.20;3.63;;;8.10;99.90;;;;;;4950749;29;20243;-66
2020/12/21 10:46:41;;;;;;;5.00;3.20;;;8.00;99.90;;;;;;4951086;28;20173;-66
2020/12/21 10:49:07;;;;;;;5.47;3.17;;;8.10;99.90;;;;;;4950701;28;20447;-66
2020/12/21 10:51:33;;;;;;;6.20;3.80;;;8.10;99.90;;;;;;4951163;29;20715;-66
2020/12/21 10:54:00;;;;;;;4.50;2.40;;;8.00;99.90;;;;;;4950737;28;20180;-66
2020/12/21 10:56:26;;;;;;;5.00;3.40;;;8.10;99.90;;;;;;4950455;29;20440;-66
2020/12/21 10:58:52;;;;;;;7.97;3.90;;;8.10;99.90;;;;;;4950397;29;20860;-66
2020/12/21 11:01:18;;;;;;;4.20;3.47;;;8.00;99.90;;;;;;4950481;29;20448;-66
2020/12/21 11:03:44;;;;;;;5.20;3.63;;;8.00;99.90;;;;;;4950564;28;20208;-66
2020/12/21 11:06:10;;;;;;;8.77;3.03;;;8.10;99.90;;;;;;4950154;29;20177;-66
2020/12/21 11:08:37;;;;;;;6.83;3.37;;;8.10;99.90;;;;;;4950166;28;20433;-66
2020/12/21 11:11:03;;;;;;;4.83;3.80;;;8.20;99.90;;;;;;4948804;29;20432;-66
2020/12/21 11:13:28;;;;;;;4.20;2.97;;;8.20;99.90;;;;;;4950519;29;20844;-66
2020/12/21 11:15:54;;;;;;;7.30;3.40;;;8.30;99.90;;;;;;4950371;29;20431;-66
2020/12/21 11:18:20;;;;;;;4.53;3.80;;;8.30;99.90;;;;;;4949939;28;20287;-66
2020/12/21 11:20:45;;;;;;;5.10;3.40;;;8.40;99.90;;;;;;4950459;28;20208;-66
2020/12/21 11:23:11;;;;;;;3.30;3.03;;;8.50;99.90;;;;;;4950091;29;20534;-66
2020/12/21 11:25:37;;;;;;;8.53;3.87;;;8.50;99.90;;;;;;4951124;28;20173;-68
2020/12/21 11:28:06;;;;;;;3.40;3.10;;;8.50;99.90;;;;;;4949729;29;20448;-65
2020/12/21 11:30:32;;;;;;;6.07;3.93;;;8.50;99.90;;;;;;4950468;28;20200;-66
2020/12/21 11:33:00;;;;;;;4.00;3.33;;;8.50;99.90;;;;;;4950021;29;20495;-67
2020/12/21 11:35:25;;;;;;;5.10;3.10;;;8.60;99.90;;;;;;4950159;29;20432;-67
2020/12/21 11:37:52;;;;;;;4.70;4.30;;;8.60;99.90;;;;;;4931435;28;543526;-67
2020/12/21 11:40:17;;;;;;;6.10;4.33;;;8.60;99.90;;;;;;4951291;28;20177;-67
2020/12/21 11:42:43;;;;;;;5.07;3.00;;;8.60;99.90;;;;;;4951157;28;20503;-67
2020/12/21 11:45:08;;;;;;;4.23;3.00;;;8.60;99.90;;;;;;4951166;29;20216;-67
2020/12/21 11:47:34;;;;;;;4.40;3.63;;;8.60;99.90;;;;;;4951063;28;20714;-67
2020/12/21 11:50:00;;;;;;;3.60;3.30;;;8.70;99.90;;;;;;4950721;29;20552;-67
2020/12/21 11:52:25;;;;;;;3.90;3.50;;;8.70;99.90;;;;;;4950896;28;20232;-67
2020/12/21 11:54:51;;;;;;;3.53;2.87;;;8.70;99.90;;;;;;4950643;29;20904;-67
2020/12/21 11:57:16;;;;;;;3.67;3.33;;;8.70;99.90;;;;;;4950674;28;20201;-67
2020/12/21 11:59:42;;;;;;;5.57;3.80;;;8.70;99.90;;;;;;4950447;29;20185;-67
2020/12/21 12:02:08;;;;;;;6.60;4.10;;;8.60;99.90;;;;;;4950885;29;20173;-66
2020/12/21 12:04:33;;;;;;;4.47;3.27;;;8.60;99.90;;;;;;4950404;29;20697;-67
2020/12/21 12:07:03;;;;;;;3.30;3.00;;;8.60;99.90;;;;;;4950685;29;20467;-67
2020/12/21 12:09:29;;;;;;;4.30;3.37;;;8.60;99.90;;;;;;4950479;29;20199;-66
2020/12/21 12:11:55;;;;;;;5.70;4.17;;;8.60;99.90;;;;;;4950806;29;20421;-67
2020/12/21 12:14:21;;;;;;;3.37;3.07;;;8.50;99.90;;;;;;4950875;28;20519;-67
2020/12/21 12:16:48;;;;;;;4.17;3.77;;;8.50;99.90;;;;;;4950663;28;20523;-68
2020/12/21 12:19:14;;;;;;;3.70;3.40;;;8.50;99.90;;;;;;4950840;29;20186;-65
2020/12/21 12:21:40;;;;;;;6.60;3.90;;;8.40;99.90;;;;;;4950776;28;20416;-66
2020/12/21 12:24:05;;;;;;;6.33;4.90;;;8.40;99.90;;;;;;4950840;28;20468;-67
2020/12/21 12:26:31;;;;;;;4.57;4.17;;;8.40;99.90;;;;;;4950477;28;20188;-68
2020/12/21 12:28:56;;;;;;;5.47;4.60;;;8.40;99.90;;;;;;4949782;28;20567;-67
2020/12/21 12:31:23;;;;;;;6.47;4.63;;;8.40;99.90;;;;;;4950335;29;20177;-67
2020/12/21 12:33:49;;;;;;;5.87;4.63;;;8.40;99.90;;;;;;4950170;28;20177;-67
2020/12/21 12:36:19;;;;;;;5.40;4.67;;;8.30;99.90;;;;;;4950160;28;20531;-68
2020/12/21 12:38:45;;;;;;;8.63;5.50;;;8.20;99.90;;;;;;4949539;29;21631;-67
2020/12/21 12:41:11;;;;;;;7.00;4.80;;;8.30;99.90;;;;;;4950327;29;20499;-67
2020/12/21 12:43:36;;;;;;;6.40;5.80;;;8.40;99.90;;;;;;4949929;29;20273;-65
2020/12/21 12:46:03;;;;;;;5.27;4.83;;;8.50;99.90;;;;;;4950091;29;20169;-66
2020/12/21 12:48:29;;;;;;;4.67;4.00;;;8.60;99.90;;;;;;4949276;29;20200;-67
2020/12/21 12:50:54;;;;;;;4.80;4.30;;;8.70;99.90;;;;;;4949865;29;20425;-67
2020/12/21 12:53:20;;;;;;;6.83;4.20;;;8.80;99.90;;;;;;4949791;29;20177;-67